sensor_id;sensor_type;location;lat;lon;timestamp;pressure;altitude;pressure_sealevel;temperature;humidity
47530;BME280;33272;51.922;7.730;2023-06-22T00:01:17;147728.91;;;21.04;93.33
47530;BME280;33272;51.922;7.730;2023-06-22T00:03:44;147718.69;;;21.00;94.22
47530;BME280;33272;51.922;7.730;2023-06-22T00:06:13;147711.03;;;20.97;94.13
47530;BME280;33272;51.922;7.730;2023-06-22T00:08:40;147704.63;;;20.94;94.28
47530;BME280;33272;51.922;7.730;2023-06-22T00:11:07;147695.69;;;20.91;94.74
47530;BME280;33272;51.922;7.730;2023-06-22T00:13:34;147690.56;;;20.89;95.15
47530;BME280;33272;51.922;7.730;2023-06-22T00:16:01;147677.75;;;20.83;95.53
47530;BME280;33272;51.922;7.730;2023-06-22T00:18:28;147665.03;;;20.78;95.68
47530;BME280;33272;51.922;7.730;2023-06-22T00:20:56;147661.16;;;20.77;96.10
47530;BME280;33272;51.922;7.730;2023-06-22T00:23:26;147652.22;;;20.73;96.56
47530;BME280;33272;51.922;7.730;2023-06-22T00:25:53;147643.28;;;20.70;96.47
47530;BME280;33272;51.922;7.730;2023-06-22T00:28:20;147633.06;;;20.66;96.91
47530;BME280;33272;51.922;7.730;2023-06-22T00:30:48;147625.41;;;20.63;97.35
47530;BME280;33272;51.922;7.730;2023-06-22T00:33:15;147616.47;;;20.59;97.88
47530;BME280;33272;51.922;7.730;2023-06-22T00:35:42;147608.81;;;20.56;98.09
47530;BME280;33272;51.922;7.730;2023-06-22T00:38:09;147601.16;;;20.53;98.25
47530;BME280;33272;51.922;7.730;2023-06-22T00:40:37;147597.28;;;20.51;98.58
47530;BME280;33272;51.922;7.730;2023-06-22T00:43:05;147593.44;;;20.50;98.56
47530;BME280;33272;51.922;7.730;2023-06-22T00:45:32;147595.97;;;20.51;98.58
47530;BME280;33272;51.922;7.730;2023-06-22T00:48:00;147594.69;;;20.50;98.69
47530;BME280;33272;51.922;7.730;2023-06-22T00:50:30;147585.75;;;20.47;98.95
47530;BME280;33272;51.922;7.730;2023-06-22T00:53:01;147571.72;;;20.41;98.94
47530;BME280;33272;51.922;7.730;2023-06-22T00:55:34;147565.31;;;20.38;99.36
47530;BME280;33272;51.922;7.730;2023-06-22T00:58:05;147552.56;;;20.33;99.72
47530;BME280;33272;51.922;7.730;2023-06-22T01:00:36;147542.31;;;20.29;99.93
47530;BME280;33272;51.922;7.730;2023-06-22T01:03:03;147532.09;;;20.25;100.00
47530;BME280;33272;51.922;7.730;2023-06-22T01:05:35;147526.97;;;20.23;100.00
47530;BME280;33272;51.922;7.730;2023-06-22T01:08:19;147511.66;;;20.17;100.00
47530;BME280;33272;51.922;7.730;2023-06-22T01:10:51;147501.44;;;20.13;100.00
47530;BME280;33272;51.922;7.730;2023-06-22T01:13:29;147483.59;;;20.06;100.00
47530;BME280;33272;51.922;7.730;2023-06-22T01:16:03;147477.19;;;20.03;100.00
47530;BME280;33272;51.922;7.730;2023-06-22T01:18:32;147467.00;;;19.99;100.00
47530;BME280;33272;51.922;7.730;2023-06-22T01:21:02;147456.75;;;19.95;100.00
47530;BME280;33272;51.922;7.730;2023-06-22T01:23:50;147449.09;;;19.92;100.00
47530;BME280;33272;51.922;7.730;2023-06-22T01:26:22;147437.63;;;19.87;100.00
47530;BME280;33272;51.922;7.730;2023-06-22T01:28:56;147428.69;;;19.84;100.00
47530;BME280;33272;51.922;7.730;2023-06-22T01:31:26;147421.03;;;19.81;100.00
47530;BME280;33272;51.922;7.730;2023-06-22T01:33:58;147410.81;;;19.77;100.00
47530;BME280;33272;51.922;7.730;2023-06-22T01:36:26;147403.16;;;19.74;100.00
47530;BME280;33272;51.922;7.730;2023-06-22T01:38:53;147392.91;;;19.70;100.00
47530;BME280;33272;51.922;7.730;2023-06-22T01:41:21;147385.25;;;19.66;100.00
47530;BME280;33272;51.922;7.730;2023-06-22T01:43:49;147382.72;;;19.65;100.00
47530;BME280;33272;51.922;7.730;2023-06-22T01:46:18;147371.19;;;19.61;100.00
47530;BME280;33272;51.922;7.730;2023-06-22T01:48:46;147369.88;;;19.60;100.00
47530;BME280;33272;51.922;7.730;2023-06-22T01:51:14;147359.69;;;19.56;100.00
47530;BME280;33272;51.922;7.730;2023-06-22T01:53:41;147358.41;;;19.56;100.00
47530;BME280;33272;51.922;7.730;2023-06-22T01:56:08;147357.16;;;19.55;100.00
47530;BME280;33272;51.922;7.730;2023-06-22T01:58:40;147353.28;;;19.54;100.00
47530;BME280;33272;51.922;7.730;2023-06-22T02:01:14;147350.75;;;19.53;100.00
47530;BME280;33272;51.922;7.730;2023-06-22T02:03:55;147344.38;;;19.50;100.00
47530;BME280;33272;51.922;7.730;2023-06-22T02:06:33;147341.81;;;19.49;100.00
47530;BME280;33272;51.922;7.730;2023-06-22T02:09:07;147339.25;;;19.48;100.00
47530;BME280;33272;51.922;7.730;2023-06-22T02:11:36;147335.44;;;19.47;100.00
47530;BME280;33272;51.922;7.730;2023-06-22T02:14:05;147331.56;;;19.45;100.00
47530;BME280;33272;51.922;7.730;2023-06-22T02:16:32;147325.22;;;19.42;100.00
47530;BME280;33272;51.922;7.730;2023-06-22T02:19:02;147321.38;;;19.41;100.00
47530;BME280;33272;51.922;7.730;2023-06-22T02:21:29;147318.84;;;19.40;100.00
47530;BME280;33272;51.922;7.730;2023-06-22T02:23:57;147318.84;;;19.40;100.00
47530;BME280;33272;51.922;7.730;2023-06-22T02:26:25;147318.84;;;19.40;100.00
47530;BME280;33272;51.922;7.730;2023-06-22T02:28:53;147316.31;;;19.39;100.00
47530;BME280;33272;51.922;7.730;2023-06-22T02:31:20;147306.06;;;19.35;100.00
47530;BME280;33272;51.922;7.730;2023-06-22T02:33:47;147301.00;;;19.33;100.00
47530;BME280;33272;51.922;7.730;2023-06-22T02:36:16;147292.00;;;19.29;100.00
47530;BME280;33272;51.922;7.730;2023-06-22T02:38:48;147288.22;;;19.28;100.00
47530;BME280;33272;51.922;7.730;2023-06-22T02:41:16;147285.66;;;19.27;100.00
47530;BME280;33272;51.922;7.730;2023-06-22T02:43:44;147279.28;;;19.24;100.00
47530;BME280;33272;51.922;7.730;2023-06-22T02:46:12;147275.44;;;19.22;100.00
47530;BME280;33272;51.922;7.730;2023-06-22T02:48:40;147275.44;;;19.22;100.00
47530;BME280;33272;51.922;7.730;2023-06-22T02:51:07;147275.44;;;19.22;100.00
47530;BME280;33272;51.922;7.730;2023-06-22T02:53:35;147270.34;;;19.20;100.00
47530;BME280;33272;51.922;7.730;2023-06-22T02:56:03;147269.09;;;19.20;100.00
47530;BME280;33272;51.922;7.730;2023-06-22T02:58:31;147262.69;;;19.17;100.00
47530;BME280;33272;51.922;7.730;2023-06-22T03:01:04;147256.31;;;19.15;100.00
47530;BME280;33272;51.922;7.730;2023-06-22T03:03:31;147251.19;;;19.13;100.00
47530;BME280;33272;51.922;7.730;2023-06-22T03:05:58;147251.19;;;19.13;100.00
47530;BME280;33272;51.922;7.730;2023-06-22T03:08:27;147243.53;;;19.10;100.00
47530;BME280;33272;51.922;7.730;2023-06-22T03:10:56;147242.25;;;19.09;100.00
47530;BME280;33272;51.922;7.730;2023-06-22T03:13:23;147237.13;;;19.07;100.00
47530;BME280;33272;51.922;7.730;2023-06-22T03:15:50;147229.53;;;19.04;100.00
47530;BME280;33272;51.922;7.730;2023-06-22T03:18:18;147226.94;;;19.03;100.00
47530;BME280;33272;51.922;7.730;2023-06-22T03:20:45;147220.56;;;19.01;100.00
47530;BME280;33272;51.922;7.730;2023-06-22T03:23:12;147212.91;;;18.97;100.00
47530;BME280;33272;51.922;7.730;2023-06-22T03:25:40;147207.81;;;18.95;100.00
47530;BME280;33272;51.922;7.730;2023-06-22T03:28:08;147201.44;;;18.93;100.00
47530;BME280;33272;51.922;7.730;2023-06-22T03:30:36;147200.16;;;18.92;100.00
47530;BME280;33272;51.922;7.730;2023-06-22T03:33:03;147206.56;;;18.95;100.00
47530;BME280;33272;51.922;7.730;2023-06-22T03:35:30;147203.97;;;18.94;100.00
47530;BME280;33272;51.922;7.730;2023-06-22T03:37:56;147200.16;;;18.92;100.00
47530;BME280;33272;51.922;7.730;2023-06-22T03:40:23;147198.91;;;18.92;100.00
47530;BME280;33272;51.922;7.730;2023-06-22T03:42:50;147201.44;;;18.93;100.00
47530;BME280;33272;51.922;7.730;2023-06-22T03:45:19;147205.25;;;18.94;100.00
47530;BME280;33272;51.922;7.730;2023-06-22T03:47:46;147209.09;;;18.96;100.00
47530;BME280;33272;51.922;7.730;2023-06-22T03:50:13;147214.22;;;18.98;100.00
47530;BME280;33272;51.922;7.730;2023-06-22T03:52:40;147216.75;;;18.99;100.00
47530;BME280;33272;51.922;7.730;2023-06-22T03:55:08;147224.41;;;19.02;100.00
47530;BME280;33272;51.922;7.730;2023-06-22T03:57:35;147233.34;;;19.06;100.00
47530;BME280;33272;51.922;7.730;2023-06-22T04:00:02;147247.38;;;19.11;100.00
47530;BME280;33272;51.922;7.730;2023-06-22T04:02:32;147261.44;;;19.17;100.00
47530;BME280;33272;51.922;7.730;2023-06-22T04:04:59;147278.00;;;19.24;100.00
47530;BME280;33272;51.922;7.730;2023-06-22T04:07:26;147298.41;;;19.32;100.00
47530;BME280;33272;51.922;7.730;2023-06-22T04:09:53;147322.66;;;19.41;100.00
47530;BME280;33272;51.922;7.730;2023-06-22T04:12:20;147350.75;;;19.53;100.00
47530;BME280;33272;51.922;7.730;2023-06-22T04:14:47;147386.53;;;19.67;100.00
47530;BME280;33272;51.922;7.730;2023-06-22T04:17:14;147456.75;;;19.95;100.00
47530;BME280;33272;51.922;7.730;2023-06-22T04:19:42;147546.16;;;20.31;100.00
47530;BME280;33272;51.922;7.730;2023-06-22T04:22:09;147639.47;;;20.68;100.00
47530;BME280;33272;51.922;7.730;2023-06-22T04:24:37;147725.03;;;21.02;100.00
47530;BME280;33272;51.922;7.730;2023-06-22T04:27:05;147792.78;;;21.29;100.00
47530;BME280;33272;51.922;7.730;2023-06-22T04:29:32;147814.59;;;21.38;100.00
47530;BME280;33272;51.922;7.730;2023-06-22T04:31:59;147828.66;;;21.44;100.00
47530;BME280;33272;51.922;7.730;2023-06-22T04:34:30;147813.31;;;21.38;100.00
47530;BME280;33272;51.922;7.730;2023-06-22T04:36:59;147789.00;;;21.28;100.00
47530;BME280;33272;51.922;7.730;2023-06-22T04:39:26;147768.53;;;21.20;100.00
47530;BME280;33272;51.922;7.730;2023-06-22T04:41:53;147769.78;;;21.20;100.00
47530;BME280;33272;51.922;7.730;2023-06-22T04:44:26;147774.91;;;21.22;100.00
47530;BME280;33272;51.922;7.730;2023-06-22T04:46:55;147785.13;;;21.26;100.00
47530;BME280;33272;51.922;7.730;2023-06-22T04:49:26;147790.25;;;21.28;100.00
47530;BME280;33272;51.922;7.730;2023-06-22T04:51:59;147781.31;;;21.25;100.00
47530;BME280;33272;51.922;7.730;2023-06-22T04:54:27;147782.59;;;21.25;100.00
47530;BME280;33272;51.922;7.730;2023-06-22T04:56:54;147786.41;;;21.27;100.00
47530;BME280;33272;51.922;7.730;2023-06-22T04:59:23;147781.31;;;21.25;100.00
47530;BME280;33272;51.922;7.730;2023-06-22T05:01:53;147792.78;;;21.29;100.00
47530;BME280;33272;51.922;7.730;2023-06-22T05:04:21;147815.84;;;21.39;100.00
47530;BME280;33272;51.922;7.730;2023-06-22T05:06:49;147855.47;;;21.55;100.00
47530;BME280;33272;51.922;7.730;2023-06-22T05:09:18;147896.38;;;21.71;100.00
47530;BME280;33272;51.922;7.730;2023-06-22T05:11:45;147933.47;;;21.86;100.00
47530;BME280;33272;51.922;7.730;2023-06-22T05:14:13;147951.38;;;21.93;100.00
47530;BME280;33272;51.922;7.730;2023-06-22T05:16:41;147969.25;;;22.00;100.00
47530;BME280;33272;51.922;7.730;2023-06-22T05:19:08;147997.41;;;22.11;100.00
47530;BME280;33272;51.922;7.730;2023-06-22T05:21:35;148044.78;;;22.30;100.00
47530;BME280;33272;51.922;7.730;2023-06-22T05:24:03;148092.13;;;22.49;100.00
47530;BME280;33272;51.922;7.730;2023-06-22T05:26:34;148113.88;;;22.58;100.00
47530;BME280;33272;51.922;7.730;2023-06-22T05:29:02;148131.78;;;22.65;100.00
47530;BME280;33272;51.922;7.730;2023-06-22T05:31:29;148172.72;;;22.81;100.00
47530;BME280;33272;51.922;7.730;2023-06-22T05:33:56;148211.16;;;22.97;100.00
47530;BME280;33272;51.922;7.730;2023-06-22T05:36:25;148234.19;;;23.06;100.00
47530;BME280;33272;51.922;7.730;2023-06-22T05:38:52;148272.59;;;23.21;100.00
47530;BME280;33272;51.922;7.730;2023-06-22T05:41:19;148272.59;;;23.21;100.00
47530;BME280;33272;51.922;7.730;2023-06-22T05:43:48;148284.09;;;23.26;99.86
47530;BME280;33272;51.922;7.730;2023-06-22T05:46:15;148299.47;;;23.32;99.56
47530;BME280;33272;51.922;7.730;2023-06-22T05:48:42;148316.09;;;23.39;99.45
47530;BME280;33272;51.922;7.730;2023-06-22T05:51:10;148345.53;;;23.50;98.80
47530;BME280;33272;51.922;7.730;2023-06-22T05:53:36;148387.78;;;23.67;98.54
47530;BME280;33272;51.922;7.730;2023-06-22T05:56:04;148418.56;;;23.79;97.81
47530;BME280;33272;51.922;7.730;2023-06-22T05:58:31;148431.38;;;23.85;96.68
47530;BME280;33272;51.922;7.730;2023-06-22T06:00:59;148442.88;;;23.89;96.73
47530;BME280;33272;51.922;7.730;2023-06-22T06:03:26;148448.03;;;23.91;95.89
47530;BME280;33272;51.922;7.730;2023-06-22T06:05:54;148427.53;;;23.83;96.11
47530;BME280;33272;51.922;7.730;2023-06-22T06:08:21;148423.69;;;23.81;96.06
47530;BME280;33272;51.922;7.730;2023-06-22T06:10:48;148418.56;;;23.79;96.19
47530;BME280;33272;51.922;7.730;2023-06-22T06:13:15;148426.25;;;23.82;96.04
47530;BME280;33272;51.922;7.730;2023-06-22T06:15:42;148431.38;;;23.85;95.77
47530;BME280;33272;51.922;7.730;2023-06-22T06:18:11;148431.38;;;23.85;95.64
47530;BME280;33272;51.922;7.730;2023-06-22T06:20:38;148405.78;;;23.74;95.59
47530;BME280;33272;51.922;7.730;2023-06-22T06:23:05;148401.94;;;23.73;95.59
47530;BME280;33272;51.922;7.730;2023-06-22T06:25:32;148412.16;;;23.77;95.82
47530;BME280;33272;51.922;7.730;2023-06-22T06:27:59;148421.16;;;23.80;95.76
47530;BME280;33272;51.922;7.730;2023-06-22T06:30:26;148426.25;;;23.82;95.49
47530;BME280;33272;51.922;7.730;2023-06-22T06:32:53;148437.81;;;23.87;95.23
47530;BME280;33272;51.922;7.730;2023-06-22T06:35:21;148451.84;;;23.93;95.38
47530;BME280;33272;51.922;7.730;2023-06-22T06:37:49;148457.00;;;23.95;94.98
47530;BME280;33272;51.922;7.730;2023-06-22T06:40:18;148458.25;;;23.95;94.52
47530;BME280;33272;51.922;7.730;2023-06-22T06:42:47;148463.41;;;23.97;94.87
47530;BME280;33272;51.922;7.730;2023-06-22T06:45:18;148478.78;;;24.03;94.65
47530;BME280;33272;51.922;7.730;2023-06-22T06:47:46;148490.28;;;24.08;94.62
47530;BME280;33272;51.922;7.730;2023-06-22T06:50:13;148510.78;;;24.16;95.30
47530;BME280;33272;51.922;7.730;2023-06-22T06:52:42;148529.97;;;24.24;94.16
47530;BME280;33272;51.922;7.730;2023-06-22T06:55:09;148553.03;;;24.33;93.93
47530;BME280;33272;51.922;7.730;2023-06-22T06:57:38;148573.59;;;24.41;93.54
47530;BME280;33272;51.922;7.730;2023-06-22T07:00:07;148597.94;;;24.51;93.71
47530;BME280;33272;51.922;7.730;2023-06-22T07:02:40;148618.44;;;24.59;93.58
47530;BME280;33272;51.922;7.730;2023-06-22T07:05:08;148644.06;;;24.69;93.03
47530;BME280;33272;51.922;7.730;2023-06-22T07:07:35;148668.41;;;24.79;92.66
47530;BME280;33272;51.922;7.730;2023-06-22T07:10:05;148690.19;;;24.88;92.57
47530;BME280;33272;51.922;7.730;2023-06-22T07:12:33;148715.81;;;24.98;92.19
47530;BME280;33272;51.922;7.730;2023-06-22T07:15:05;148735.03;;;25.06;91.24
47530;BME280;33272;51.922;7.730;2023-06-22T07:17:33;148732.47;;;25.05;90.98
47530;BME280;33272;51.922;7.730;2023-06-22T07:20:01;148733.75;;;25.05;90.78
47530;BME280;33272;51.922;7.730;2023-06-22T07:22:33;148740.16;;;25.08;90.39
47530;BME280;33272;51.922;7.730;2023-06-22T07:25:00;148736.28;;;25.06;90.25
47530;BME280;33272;51.922;7.730;2023-06-22T07:27:31;148728.66;;;25.03;89.55
47530;BME280;33272;51.922;7.730;2023-06-22T07:30:01;148715.81;;;24.98;89.81
47530;BME280;33272;51.922;7.730;2023-06-22T07:32:28;148703.00;;;24.93;89.58
47530;BME280;33272;51.922;7.730;2023-06-22T07:34:55;148683.78;;;24.85;89.93
47530;BME280;33272;51.922;7.730;2023-06-22T07:37:22;148676.09;;;24.82;90.07
47530;BME280;33272;51.922;7.730;2023-06-22T07:39:49;148672.22;;;24.81;90.46
47530;BME280;33272;51.922;7.730;2023-06-22T07:42:19;148663.25;;;24.77;90.52
47530;BME280;33272;51.922;7.730;2023-06-22T07:44:47;148659.44;;;24.76;90.68
47530;BME280;33272;51.922;7.730;2023-06-22T07:47:16;148635.09;;;24.66;90.81
47530;BME280;33272;51.922;7.730;2023-06-22T07:49:43;148619.72;;;24.60;90.83
47530;BME280;33272;51.922;7.730;2023-06-22T07:52:11;148619.72;;;24.60;91.51
47530;BME280;33272;51.922;7.730;2023-06-22T07:54:38;148619.72;;;24.60;91.16
47530;BME280;33272;51.922;7.730;2023-06-22T07:57:06;148608.16;;;24.55;91.33
47530;BME280;33272;51.922;7.730;2023-06-22T07:59:33;148600.47;;;24.52;91.81
47530;BME280;33272;51.922;7.730;2023-06-22T08:02:02;148597.94;;;24.51;91.65
47530;BME280;33272;51.922;7.730;2023-06-22T08:04:29;148588.97;;;24.47;92.65
47530;BME280;33272;51.922;7.730;2023-06-22T08:06:58;148587.69;;;24.47;92.31
47530;BME280;33272;51.922;7.730;2023-06-22T08:09:25;148578.75;;;24.43;92.96
47530;BME280;33272;51.922;7.730;2023-06-22T08:11:52;148568.41;;;24.39;92.66
47530;BME280;33272;51.922;7.730;2023-06-22T08:14:21;148564.59;;;24.38;92.56
47530;BME280;33272;51.922;7.730;2023-06-22T08:16:48;148562.00;;;24.37;93.22
47530;BME280;33272;51.922;7.730;2023-06-22T08:19:16;148567.13;;;24.39;93.47
47530;BME280;33272;51.922;7.730;2023-06-22T08:21:45;148562.00;;;24.37;93.08
47530;BME280;33272;51.922;7.730;2023-06-22T08:24:12;148556.91;;;24.35;93.05
47530;BME280;33272;51.922;7.730;2023-06-22T08:26:39;148562.00;;;24.37;93.16
47530;BME280;33272;51.922;7.730;2023-06-22T08:29:06;148567.13;;;24.39;93.35
47530;BME280;33272;51.922;7.730;2023-06-22T08:31:33;148574.88;;;24.42;93.07
47530;BME280;33272;51.922;7.730;2023-06-22T08:34:00;148596.66;;;24.50;93.64
47530;BME280;33272;51.922;7.730;2023-06-22T08:36:29;148628.69;;;24.63;93.41
47530;BME280;33272;51.922;7.730;2023-06-22T08:38:58;148659.44;;;24.76;92.69
47530;BME280;33272;51.922;7.730;2023-06-22T08:41:27;148665.84;;;24.78;92.62
47530;BME280;33272;51.922;7.730;2023-06-22T08:43:54;148674.81;;;24.82;91.96
47530;BME280;33272;51.922;7.730;2023-06-22T08:46:21;148677.38;;;24.83;91.85
47530;BME280;33272;51.922;7.730;2023-06-22T08:48:57;148691.47;;;24.88;92.42
47530;BME280;33272;51.922;7.730;2023-06-22T08:51:24;148697.91;;;24.91;92.40
47530;BME280;33272;51.922;7.730;2023-06-22T08:53:52;148717.09;;;24.98;91.62
47530;BME280;33272;51.922;7.730;2023-06-22T08:56:19;148745.31;;;25.10;91.45
47530;BME280;33272;51.922;7.730;2023-06-22T08:58:46;148782.50;;;25.25;91.76
47530;BME280;33272;51.922;7.730;2023-06-22T09:01:13;148829.91;;;25.43;90.78
47530;BME280;33272;51.922;7.730;2023-06-22T09:03:41;148865.84;;;25.58;91.04
47530;BME280;33272;51.922;7.730;2023-06-22T09:06:08;148894.00;;;25.69;90.41
47530;BME280;33272;51.922;7.730;2023-06-22T09:08:35;148913.28;;;25.77;89.35
47530;BME280;33272;51.922;7.730;2023-06-22T09:11:04;148931.25;;;25.84;89.17
47530;BME280;33272;51.922;7.730;2023-06-22T09:13:32;148941.50;;;25.88;89.25
47530;BME280;33272;51.922;7.730;2023-06-22T09:16:00;148954.34;;;25.93;89.03
47530;BME280;33272;51.922;7.730;2023-06-22T09:18:27;148972.28;;;26.00;87.93
47530;BME280;33272;51.922;7.730;2023-06-22T09:20:54;148973.56;;;26.01;87.89
47530;BME280;33272;51.922;7.730;2023-06-22T09:23:21;148994.09;;;26.09;87.98
47530;BME280;33272;51.922;7.730;2023-06-22T09:25:49;149017.19;;;26.18;87.71
47530;BME280;33272;51.922;7.730;2023-06-22T09:28:17;149054.41;;;26.33;87.43
47530;BME280;33272;51.922;7.730;2023-06-22T09:30:44;149090.28;;;26.47;87.01
47530;BME280;33272;51.922;7.730;2023-06-22T09:33:11;149155.75;;;26.73;85.69
47530;BME280;33272;51.922;7.730;2023-06-22T09:35:38;149169.88;;;26.79;85.02
47530;BME280;33272;51.922;7.730;2023-06-22T09:38:05;149212.25;;;26.96;84.66
47530;BME280;33272;51.922;7.730;2023-06-22T09:40:32;149240.47;;;27.07;83.74
47530;BME280;33272;51.922;7.730;2023-06-22T09:43:05;149280.31;;;27.23;83.28
47530;BME280;33272;51.922;7.730;2023-06-22T09:45:33;149326.50;;;27.41;82.81
47530;BME280;33272;51.922;7.730;2023-06-22T09:48:00;149372.72;;;27.60;81.85
47530;BME280;33272;51.922;7.730;2023-06-22T09:50:27;149393.25;;;27.68;80.77
47530;BME280;33272;51.922;7.730;2023-06-22T09:52:54;149415.09;;;27.77;80.28
47530;BME280;33272;51.922;7.730;2023-06-22T09:55:21;149438.25;;;27.86;80.15
47530;BME280;33272;51.922;7.730;2023-06-22T09:57:48;149493.47;;;28.08;79.49
47530;BME280;33272;51.922;7.730;2023-06-22T10:00:17;149523.03;;;28.19;78.96
47530;BME280;33272;51.922;7.730;2023-06-22T10:02:46;149539.72;;;28.26;78.23
47530;BME280;33272;51.922;7.730;2023-06-22T10:05:13;149552.56;;;28.31;77.94
47530;BME280;33272;51.922;7.730;2023-06-22T10:07:41;149573.09;;;28.39;77.47
47530;BME280;33272;51.922;7.730;2023-06-22T10:10:10;149560.28;;;28.34;76.59
47530;BME280;33272;51.922;7.730;2023-06-22T10:12:41;149552.56;;;28.31;77.01
47530;BME280;33272;51.922;7.730;2023-06-22T10:15:10;149547.41;;;28.29;77.10
47530;BME280;33272;51.922;7.730;2023-06-22T10:17:37;149537.16;;;28.25;76.61
47530;BME280;33272;51.922;7.730;2023-06-22T10:20:07;149556.41;;;28.33;76.49
47530;BME280;33272;51.922;7.730;2023-06-22T10:22:38;149602.69;;;28.51;76.48
47530;BME280;33272;51.922;7.730;2023-06-22T10:25:07;149656.66;;;28.73;75.66
47530;BME280;33272;51.922;7.730;2023-06-22T10:27:34;149718.31;;;28.97;75.06
47530;BME280;33272;51.922;7.730;2023-06-22T10:30:02;149771.06;;;29.18;73.88
47530;BME280;33272;51.922;7.730;2023-06-22T10:32:30;149822.50;;;29.39;73.29
47530;BME280;33272;51.922;7.730;2023-06-22T10:34:57;149879.09;;;29.61;72.35
47530;BME280;33272;51.922;7.730;2023-06-22T10:37:26;149908.63;;;29.73;71.42
47530;BME280;33272;51.922;7.730;2023-06-22T10:39:53;149938.22;;;29.85;70.92
47530;BME280;33272;51.922;7.730;2023-06-22T10:42:20;149975.50;;;29.99;70.96
47530;BME280;33272;51.922;7.730;2023-06-22T10:44:47;149981.94;;;30.02;69.73
47530;BME280;33272;51.922;7.730;2023-06-22T10:47:14;149891.91;;;29.66;69.75
47530;BME280;33272;51.922;7.730;2023-06-22T10:49:41;149855.91;;;29.52;70.65
47530;BME280;33272;51.922;7.730;2023-06-22T10:52:08;149828.88;;;29.41;70.95
47530;BME280;33272;51.922;7.730;2023-06-22T10:54:37;149830.22;;;29.42;70.93
47530;BME280;33272;51.922;7.730;2023-06-22T10:57:05;149816.06;;;29.36;70.96
47530;BME280;33272;51.922;7.730;2023-06-22T10:59:32;149807.06;;;29.32;70.96
47530;BME280;33272;51.922;7.730;2023-06-22T11:01:59;149808.34;;;29.33;71.03
47530;BME280;33272;51.922;7.730;2023-06-22T11:04:26;149800.63;;;29.30;70.63
47530;BME280;33272;51.922;7.730;2023-06-22T11:06:53;149771.06;;;29.18;70.19
47530;BME280;33272;51.922;7.730;2023-06-22T11:09:22;149751.81;;;29.10;70.42
47530;BME280;33272;51.922;7.730;2023-06-22T11:11:51;149744.09;;;29.07;70.35
47530;BME280;33272;51.922;7.730;2023-06-22T11:14:19;149767.22;;;29.17;70.71
47530;BME280;33272;51.922;7.730;2023-06-22T11:16:46;149786.47;;;29.24;70.95
47530;BME280;33272;51.922;7.730;2023-06-22T11:19:13;149804.47;;;29.31;70.19
47530;BME280;33272;51.922;7.730;2023-06-22T11:21:40;149823.78;;;29.39;70.28
47530;BME280;33272;51.922;7.730;2023-06-22T11:24:07;149857.19;;;29.52;70.31
47530;BME280;33272;51.922;7.730;2023-06-22T11:26:34;149907.34;;;29.72;69.65
47530;BME280;33272;51.922;7.730;2023-06-22T11:29:03;149939.47;;;29.85;68.51
47530;BME280;33272;51.922;7.730;2023-06-22T11:31:31;149958.78;;;29.93;68.32
47530;BME280;33272;51.922;7.730;2023-06-22T11:33:58;149961.34;;;29.94;68.50
47530;BME280;33272;51.922;7.730;2023-06-22T11:36:25;149970.34;;;29.97;68.31
47530;BME280;33272;51.922;7.730;2023-06-22T11:38:52;149997.38;;;30.08;67.93
47530;BME280;33272;51.922;7.730;2023-06-22T11:41:19;150019.19;;;30.17;68.41
47530;BME280;33272;51.922;7.730;2023-06-22T11:43:46;150021.81;;;30.18;67.54
47530;BME280;33272;51.922;7.730;2023-06-22T11:46:14;150033.41;;;30.22;67.88
47530;BME280;33272;51.922;7.730;2023-06-22T11:48:41;150055.28;;;30.31;66.86
47530;BME280;33272;51.922;7.730;2023-06-22T11:51:08;150066.84;;;30.36;66.81
47530;BME280;33272;51.922;7.730;2023-06-22T11:53:35;150065.56;;;30.35;66.17
47530;BME280;33272;51.922;7.730;2023-06-22T11:56:02;150056.56;;;30.32;66.92
47530;BME280;33272;51.922;7.730;2023-06-22T11:58:29;150046.28;;;30.28;66.58
47530;BME280;33272;51.922;7.730;2023-06-22T12:00:56;150034.69;;;30.23;66.18
47530;BME280;33272;51.922;7.730;2023-06-22T12:03:25;150002.50;;;30.10;66.30
47530;BME280;33272;51.922;7.730;2023-06-22T12:05:52;149974.22;;;29.99;66.45
47530;BME280;33272;51.922;7.730;2023-06-22T12:08:19;149942.09;;;29.86;66.52
47530;BME280;33272;51.922;7.730;2023-06-22T12:10:46;149921.50;;;29.78;67.39
47530;BME280;33272;51.922;7.730;2023-06-22T12:13:13;149886.81;;;29.64;67.37
47530;BME280;33272;51.922;7.730;2023-06-22T12:15:40;149853.34;;;29.51;67.77
47530;BME280;33272;51.922;7.730;2023-06-22T12:18:07;149825.03;;;29.40;68.05
47530;BME280;33272;51.922;7.730;2023-06-22T12:20:36;149789.03;;;29.25;68.91
47530;BME280;33272;51.922;7.730;2023-06-22T12:23:03;149758.25;;;29.13;69.46
47530;BME280;33272;51.922;7.730;2023-06-22T12:25:29;149726.00;;;29.00;70.04
47530;BME280;33272;51.922;7.730;2023-06-22T12:27:56;149697.78;;;28.89;70.60
47530;BME280;33272;51.922;7.730;2023-06-22T12:30:24;149668.22;;;28.77;70.45
47530;BME280;33272;51.922;7.730;2023-06-22T12:32:50;149616.84;;;28.57;71.35
47530;BME280;33272;51.922;7.730;2023-06-22T12:35:17;149558.97;;;28.34;71.84
47530;BME280;33272;51.922;7.730;2023-06-22T12:37:46;149483.22;;;28.04;74.42
47530;BME280;33272;51.922;7.730;2023-06-22T12:40:13;149386.88;;;27.65;76.49
47530;BME280;33272;51.922;7.730;2023-06-22T12:42:40;149284.19;;;27.24;79.78
47530;BME280;33272;51.922;7.730;2023-06-22T12:45:09;149182.72;;;26.84;82.76
47530;BME280;33272;51.922;7.730;2023-06-22T12:47:36;149085.19;;;26.45;86.50
47530;BME280;33272;51.922;7.730;2023-06-22T12:50:04;149000.53;;;26.11;90.19